sensor_id;sensor_type;location;lat;lon;timestamp;pressure;altitude;pressure_sealevel;temperature;humidity
58471;BME280;44258;51.288;12.068;2023-05-22T00:02:03;100430.50;;;18.52;56.16
58471;BME280;44258;51.288;12.068;2023-05-22T00:04:50;100419.41;;;18.44;56.04
58471;BME280;44258;51.288;12.068;2023-05-22T00:07:38;100416.81;;;18.42;56.28
58471;BME280;44258;51.288;12.068;2023-05-22T00:10:26;100416.31;;;18.27;56.73
58471;BME280;44258;51.288;12.068;2023-05-22T00:13:13;100418.25;;;18.37;56.94
58471;BME280;44258;51.288;12.068;2023-05-22T00:15:59;100410.75;;;18.29;56.73
58471;BME280;44258;51.288;12.068;2023-05-22T00:18:47;100413.19;;;18.11;56.88
58471;BME280;44258;51.288;12.068;2023-05-22T00:21:34;100400.09;;;18.05;58.00
58471;BME280;44258;51.288;12.068;2023-05-22T00:24:23;100405.34;;;17.97;57.46
58471;BME280;44258;51.288;12.068;2023-05-22T00:27:10;100406.06;;;17.99;57.64
58471;BME280;44258;51.288;12.068;2023-05-22T00:29:59;100410.66;;;17.98;57.89
58471;BME280;44258;51.288;12.068;2023-05-22T00:32:48;100401.84;;;18.06;57.34
58471;BME280;44258;51.288;12.068;2023-05-22T00:35:35;100403.91;;;18.13;57.08
58471;BME280;44258;51.288;12.068;2023-05-22T00:38:28;100399.19;;;18.37;56.78
58471;BME280;44258;51.288;12.068;2023-05-22T00:41:18;100398.28;;;18.26;56.86
58471;BME280;44258;51.288;12.068;2023-05-22T00:44:10;100397.59;;;18.13;56.99
58471;BME280;44258;51.288;12.068;2023-05-22T00:46:57;100395.00;;;18.11;56.96
58471;BME280;44258;51.288;12.068;2023-05-22T00:49:44;100394.53;;;18.06;57.23
58471;BME280;44258;51.288;12.068;2023-05-22T00:52:33;100398.19;;;17.96;57.39
58471;BME280;44258;51.288;12.068;2023-05-22T00:55:20;100391.59;;;17.98;57.74
58471;BME280;44258;51.288;12.068;2023-05-22T00:58:09;100396.78;;;18.01;57.59
58471;BME280;44258;51.288;12.068;2023-05-22T01:00:59;100392.06;;;18.03;57.40
58471;BME280;44258;51.288;12.068;2023-05-22T01:03:46;100393.78;;;18.04;57.59
58471;BME280;44258;51.288;12.068;2023-05-22T01:06:33;100398.63;;;18.01;57.29
58471;BME280;44258;51.288;12.068;2023-05-22T01:09:20;100398.03;;;17.97;57.58
58471;BME280;44258;51.288;12.068;2023-05-22T01:12:09;100397.13;;;18.08;57.43
58471;BME280;44258;51.288;12.068;2023-05-22T01:15:06;100389.00;;;17.97;57.45
58471;BME280;44258;51.288;12.068;2023-05-22T01:18:01;100390.88;;;17.96;57.27
58471;BME280;44258;51.288;12.068;2023-05-22T01:21:02;100386.69;;;17.92;57.33
58471;BME280;44258;51.288;12.068;2023-05-22T01:24:08;100399.69;;;17.88;57.44
58471;BME280;44258;51.288;12.068;2023-05-22T01:30:45;100397.91;;;17.78;57.83
58471;BME280;44258;51.288;12.068;2023-05-22T01:33:40;100394.16;;;17.79;57.41
58471;BME280;44258;51.288;12.068;2023-05-22T01:36:30;100398.75;;;17.78;57.55
58471;BME280;44258;51.288;12.068;2023-05-22T01:39:20;100398.28;;;17.73;57.66
58471;BME280;44258;51.288;12.068;2023-05-22T01:42:09;100405.84;;;17.69;57.62
58471;BME280;44258;51.288;12.068;2023-05-22T01:44:56;100403.50;;;17.65;58.07
58471;BME280;44258;51.288;12.068;2023-05-22T01:47:44;100401.91;;;17.62;58.09
58471;BME280;44258;51.288;12.068;2023-05-22T01:50:31;100403.78;;;17.62;57.86
58471;BME280;44258;51.288;12.068;2023-05-22T01:53:23;100405.03;;;17.58;57.93
58471;BME280;44258;51.288;12.068;2023-05-22T01:56:15;100416.66;;;17.60;57.77
58471;BME280;44258;51.288;12.068;2023-05-22T01:59:09;100416.44;;;17.51;58.33
58471;BME280;44258;51.288;12.068;2023-05-22T02:02:05;100414.34;;;17.44;58.32
58471;BME280;44258;51.288;12.068;2023-05-22T02:04:57;100419.31;;;17.39;58.32
58471;BME280;44258;51.288;12.068;2023-05-22T02:07:46;100413.38;;;17.33;58.31
58471;BME280;44258;51.288;12.068;2023-05-22T02:10:34;100415.50;;;17.30;58.54
58471;BME280;44258;51.288;12.068;2023-05-22T02:13:22;100409.84;;;17.22;58.70
58471;BME280;44258;51.288;12.068;2023-05-22T02:16:09;100408.44;;;17.16;58.70
58471;BME280;44258;51.288;12.068;2023-05-22T02:19:00;100404.88;;;17.15;58.76
58471;BME280;44258;51.288;12.068;2023-05-22T02:21:52;100407.13;;;17.10;58.89
58471;BME280;44258;51.288;12.068;2023-05-22T02:24:39;100403.91;;;17.17;58.65
58471;BME280;44258;51.288;12.068;2023-05-22T02:27:30;100405.88;;;17.14;58.63
58471;BME280;44258;51.288;12.068;2023-05-22T02:30:16;100407.13;;;17.22;58.98
58471;BME280;44258;51.288;12.068;2023-05-22T02:33:03;100400.81;;;17.10;58.60
58471;BME280;44258;51.288;12.068;2023-05-22T02:35:50;100402.81;;;16.97;59.15
58471;BME280;44258;51.288;12.068;2023-05-22T02:38:39;100406.13;;;17.11;58.75
58471;BME280;44258;51.288;12.068;2023-05-22T02:41:25;100404.91;;;16.93;59.15
58471;BME280;44258;51.288;12.068;2023-05-22T02:44:12;100409.88;;;16.88;59.50
58471;BME280;44258;51.288;12.068;2023-05-22T02:46:59;100401.47;;;17.02;59.71
58471;BME280;44258;51.288;12.068;2023-05-22T02:49:46;100395.66;;;16.95;59.28
58471;BME280;44258;51.288;12.068;2023-05-22T02:52:34;100389.81;;;17.11;58.15
58471;BME280;44258;51.288;12.068;2023-05-22T02:55:22;100400.50;;;16.92;59.57
58471;BME280;44258;51.288;12.068;2023-05-22T02:58:10;100393.09;;;16.71;60.71
58471;BME280;44258;51.288;12.068;2023-05-22T03:00:59;100382.34;;;16.59;61.27
58471;BME280;44258;51.288;12.068;2023-05-22T03:03:46;100384.47;;;16.55;61.43
58471;BME280;44258;51.288;12.068;2023-05-22T03:06:33;100387.31;;;16.53;61.38
58471;BME280;44258;51.288;12.068;2023-05-22T03:09:21;100383.97;;;16.50;61.44
58471;BME280;44258;51.288;12.068;2023-05-22T03:12:09;100392.72;;;16.76;60.54
58471;BME280;44258;51.288;12.068;2023-05-22T03:14:56;100383.22;;;16.70;60.80
58471;BME280;44258;51.288;12.068;2023-05-22T03:17:43;100384.06;;;16.71;60.75
58471;BME280;44258;51.288;12.068;2023-05-22T03:20:30;100389.25;;;16.85;60.82
58471;BME280;44258;51.288;12.068;2023-05-22T03:23:17;100378.28;;;16.76;60.74
58471;BME280;44258;51.288;12.068;2023-05-22T03:26:05;100385.53;;;16.75;60.91
58471;BME280;44258;51.288;12.068;2023-05-22T03:28:56;100377.88;;;16.91;60.59
58471;BME280;44258;51.288;12.068;2023-05-22T03:31:43;100387.53;;;16.84;60.32
58471;BME280;44258;51.288;12.068;2023-05-22T03:34:31;100381.31;;;17.05;60.00
58471;BME280;44258;51.288;12.068;2023-05-22T03:37:18;100379.50;;;16.94;59.78
58471;BME280;44258;51.288;12.068;2023-05-22T03:40:06;100387.22;;;17.10;59.43
58471;BME280;44258;51.288;12.068;2023-05-22T03:42:53;100379.84;;;17.01;59.18
58471;BME280;44258;51.288;12.068;2023-05-22T03:45:41;100374.38;;;17.12;58.52
58471;BME280;44258;51.288;12.068;2023-05-22T03:48:28;100380.97;;;16.87;59.38
58471;BME280;44258;51.288;12.068;2023-05-22T03:51:15;100375.19;;;16.69;60.13
58471;BME280;44258;51.288;12.068;2023-05-22T03:54:02;100377.41;;;16.86;59.92
58471;BME280;44258;51.288;12.068;2023-05-22T03:56:50;100375.44;;;16.77;60.17
58471;BME280;44258;51.288;12.068;2023-05-22T03:59:37;100379.38;;;16.73;60.35
58471;BME280;44258;51.288;12.068;2023-05-22T04:02:27;100368.91;;;16.68;60.89
58471;BME280;44258;51.288;12.068;2023-05-22T04:05:15;100371.88;;;16.54;61.18
58471;BME280;44258;51.288;12.068;2023-05-22T04:08:02;100367.69;;;16.61;61.51
58471;BME280;44258;51.288;12.068;2023-05-22T04:10:49;100374.94;;;16.61;61.44
58471;BME280;44258;51.288;12.068;2023-05-22T04:13:35;100361.50;;;16.70;61.50
58471;BME280;44258;51.288;12.068;2023-05-22T04:16:22;100367.66;;;16.72;61.37
58471;BME280;44258;51.288;12.068;2023-05-22T04:19:10;100369.03;;;16.67;61.69
58471;BME280;44258;51.288;12.068;2023-05-22T04:21:58;100372.72;;;16.77;61.61
58471;BME280;44258;51.288;12.068;2023-05-22T04:24:45;100367.84;;;17.03;60.95
58471;BME280;44258;51.288;12.068;2023-05-22T04:27:35;100371.31;;;17.05;60.79
58471;BME280;44258;51.288;12.068;2023-05-22T04:30:22;100362.53;;;17.02;60.82
58471;BME280;44258;51.288;12.068;2023-05-22T04:33:10;100365.13;;;17.03;60.83
58471;BME280;44258;51.288;12.068;2023-05-22T04:35:58;100364.13;;;17.27;60.68
58471;BME280;44258;51.288;12.068;2023-05-22T04:38:45;100368.81;;;17.25;60.30
58471;BME280;44258;51.288;12.068;2023-05-22T04:41:32;100371.28;;;17.17;60.66
58471;BME280;44258;51.288;12.068;2023-05-22T04:44:23;100378.22;;;17.21;60.38
58471;BME280;44258;51.288;12.068;2023-05-22T04:47:10;100366.72;;;17.28;59.93
58471;BME280;44258;51.288;12.068;2023-05-22T04:50:01;100378.97;;;17.23;59.82
58471;BME280;44258;51.288;12.068;2023-05-22T04:52:50;100372.66;;;17.11;60.13
58471;BME280;44258;51.288;12.068;2023-05-22T04:55:37;100380.94;;;17.09;60.27
58471;BME280;44258;51.288;12.068;2023-05-22T04:58:24;100369.03;;;17.33;59.84
58471;BME280;44258;51.288;12.068;2023-05-22T05:01:17;100369.44;;;17.17;60.03
58471;BME280;44258;51.288;12.068;2023-05-22T05:04:04;100370.19;;;17.08;60.35
58471;BME280;44258;51.288;12.068;2023-05-22T05:06:51;100379.09;;;16.99;61.12
58471;BME280;44258;51.288;12.068;2023-05-22T05:09:41;100373.06;;;17.06;61.44
58471;BME280;44258;51.288;12.068;2023-05-22T05:12:27;100373.41;;;17.13;61.06
58471;BME280;44258;51.288;12.068;2023-05-22T05:15:14;100364.97;;;17.39;59.86
58471;BME280;44258;51.288;12.068;2023-05-22T05:18:01;100365.09;;;17.26;60.48
58471;BME280;44258;51.288;12.068;2023-05-22T05:20:48;100365.00;;;17.48;59.72
58471;BME280;44258;51.288;12.068;2023-05-22T05:23:37;100376.94;;;17.36;60.57
58471;BME280;44258;51.288;12.068;2023-05-22T05:26:26;100373.41;;;17.24;61.10
58471;BME280;44258;51.288;12.068;2023-05-22T05:29:17;100373.00;;;17.29;61.34
58471;BME280;44258;51.288;12.068;2023-05-22T05:32:04;100369.88;;;17.45;61.12
58471;BME280;44258;51.288;12.068;2023-05-22T05:34:51;100369.28;;;17.62;60.75
58471;BME280;44258;51.288;12.068;2023-05-22T05:37:45;100372.59;;;17.66;60.57
58471;BME280;44258;51.288;12.068;2023-05-22T05:40:33;100382.22;;;17.70;60.65
58471;BME280;44258;51.288;12.068;2023-05-22T05:43:21;100381.72;;;17.76;60.46
58471;BME280;44258;51.288;12.068;2023-05-22T05:46:09;100376.59;;;17.83;60.71
58471;BME280;44258;51.288;12.068;2023-05-22T05:48:59;100386.78;;;18.02;60.33
58471;BME280;44258;51.288;12.068;2023-05-22T05:51:46;100378.84;;;18.10;60.14
58471;BME280;44258;51.288;12.068;2023-05-22T05:54:33;100379.34;;;18.25;59.39
58471;BME280;44258;51.288;12.068;2023-05-22T05:57:20;100383.38;;;18.61;58.46
58471;BME280;44258;51.288;12.068;2023-05-22T06:00:12;100374.19;;;18.52;58.91
58471;BME280;44258;51.288;12.068;2023-05-22T06:02:59;100389.91;;;18.18;60.50
58471;BME280;44258;51.288;12.068;2023-05-22T06:05:45;100375.41;;;18.39;59.91
58471;BME280;44258;51.288;12.068;2023-05-22T06:08:33;100384.44;;;18.39;59.50
58471;BME280;44258;51.288;12.068;2023-05-22T06:11:19;100384.41;;;18.70;58.73
58471;BME280;44258;51.288;12.068;2023-05-22T06:14:06;100377.81;;;18.72;59.14
58471;BME280;44258;51.288;12.068;2023-05-22T06:16:56;100386.81;;;18.94;59.10
58471;BME280;44258;51.288;12.068;2023-05-22T06:19:42;100386.28;;;19.00;59.18
58471;BME280;44258;51.288;12.068;2023-05-22T06:22:29;100382.59;;;19.30;57.39
58471;BME280;44258;51.288;12.068;2023-05-22T06:25:18;100377.31;;;19.48;57.34
58471;BME280;44258;51.288;12.068;2023-05-22T06:28:05;100373.84;;;19.56;56.17
58471;BME280;44258;51.288;12.068;2023-05-22T06:30:52;100368.56;;;19.54;56.17
58471;BME280;44258;51.288;12.068;2023-05-22T06:33:41;100368.13;;;19.59;55.88
58471;BME280;44258;51.288;12.068;2023-05-22T06:36:28;100375.88;;;19.44;56.83
58471;BME280;44258;51.288;12.068;2023-05-22T06:39:15;100363.78;;;19.66;56.25
58471;BME280;44258;51.288;12.068;2023-05-22T06:42:04;100369.13;;;19.87;55.00
58471;BME280;44258;51.288;12.068;2023-05-22T06:44:51;100369.53;;;20.12;54.63
58471;BME280;44258;51.288;12.068;2023-05-22T06:47:38;100364.19;;;20.10;54.72
58471;BME280;44258;51.288;12.068;2023-05-22T06:50:26;100369.31;;;20.33;53.75
58471;BME280;44258;51.288;12.068;2023-05-22T06:53:13;100367.50;;;20.04;54.21
58471;BME280;44258;51.288;12.068;2023-05-22T06:56:00;100371.94;;;20.15;53.63
58471;BME280;44258;51.288;12.068;2023-05-22T06:58:47;100366.94;;;20.10;53.46
58471;BME280;44258;51.288;12.068;2023-05-22T07:01:34;100361.91;;;20.16;53.18
58471;BME280;44258;51.288;12.068;2023-05-22T07:04:21;100368.44;;;20.32;53.54
58471;BME280;44258;51.288;12.068;2023-05-22T07:07:09;100365.94;;;20.59;52.98
58471;BME280;44258;51.288;12.068;2023-05-22T07:09:56;100367.81;;;20.58;52.97
58471;BME280;44258;51.288;12.068;2023-05-22T07:12:44;100370.25;;;20.61;52.53
58471;BME280;44258;51.288;12.068;2023-05-22T07:15:31;100364.28;;;20.76;52.43
58471;BME280;44258;51.288;12.068;2023-05-22T07:18:18;100370.25;;;20.89;52.42
58471;BME280;44258;51.288;12.068;2023-05-22T07:21:05;100363.91;;;21.16;52.23
58471;BME280;44258;51.288;12.068;2023-05-22T07:23:53;100364.22;;;21.13;51.91
58471;BME280;44258;51.288;12.068;2023-05-22T07:26:40;100364.31;;;21.39;51.46
58471;BME280;44258;51.288;12.068;2023-05-22T07:29:30;100361.28;;;21.60;50.86
58471;BME280;44258;51.288;12.068;2023-05-22T07:32:18;100362.38;;;21.67;50.46
58471;BME280;44258;51.288;12.068;2023-05-22T07:35:05;100354.34;;;21.92;50.82
58471;BME280;44258;51.288;12.068;2023-05-22T07:37:56;100359.03;;;22.18;49.64
58471;BME280;44258;51.288;12.068;2023-05-22T07:40:44;100355.63;;;22.24;50.13
58471;BME280;44258;51.288;12.068;2023-05-22T07:43:31;100360.59;;;22.55;49.09
58471;BME280;44258;51.288;12.068;2023-05-22T07:46:18;100359.06;;;22.86;47.75
58471;BME280;44258;51.288;12.068;2023-05-22T07:49:05;100350.84;;;22.86;47.57
58471;BME280;44258;51.288;12.068;2023-05-22T07:51:52;100359.44;;;23.00;48.17
58471;BME280;44258;51.288;12.068;2023-05-22T07:54:39;100357.13;;;23.29;46.61
58471;BME280;44258;51.288;12.068;2023-05-22T07:57:27;100353.16;;;23.24;46.27
58471;BME280;44258;51.288;12.068;2023-05-22T08:00:16;100350.06;;;23.10;47.16
58471;BME280;44258;51.288;12.068;2023-05-22T08:03:03;100356.09;;;23.30;46.75
58471;BME280;44258;51.288;12.068;2023-05-22T08:05:50;100361.38;;;22.39;48.46
58471;BME280;44258;51.288;12.068;2023-05-22T08:08:37;100363.63;;;21.55;50.11
58471;BME280;44258;51.288;12.068;2023-05-22T08:11:32;100361.00;;;22.33;48.73
58471;BME280;44258;51.288;12.068;2023-05-22T08:14:22;100362.19;;;23.00;48.10
58471;BME280;44258;51.288;12.068;2023-05-22T08:17:09;100359.19;;;22.16;48.96
58471;BME280;44258;51.288;12.068;2023-05-22T08:19:57;100350.28;;;23.33;46.91
58471;BME280;44258;51.288;12.068;2023-05-22T08:22:44;100366.09;;;22.89;47.59
58471;BME280;44258;51.288;12.068;2023-05-22T08:25:31;100357.22;;;23.03;47.72
58471;BME280;44258;51.288;12.068;2023-05-22T08:28:18;100352.59;;;23.04;46.42
58471;BME280;44258;51.288;12.068;2023-05-22T08:31:06;100346.75;;;22.90;46.43
58471;BME280;44258;51.288;12.068;2023-05-22T08:33:53;100347.94;;;23.88;44.76
58471;BME280;44258;51.288;12.068;2023-05-22T08:36:46;100349.81;;;23.87;45.88
58471;BME280;44258;51.288;12.068;2023-05-22T08:39:34;100353.16;;;24.55;43.94
58471;BME280;44258;51.288;12.068;2023-05-22T08:42:23;100346.56;;;23.84;44.22
58471;BME280;44258;51.288;12.068;2023-05-22T08:45:13;100349.06;;;24.43;43.58
58471;BME280;44258;51.288;12.068;2023-05-22T08:48:03;100333.66;;;24.17;44.65
58471;BME280;44258;51.288;12.068;2023-05-22T08:50:52;100340.81;;;24.35;43.99
58471;BME280;44258;51.288;12.068;2023-05-22T08:53:42;100331.13;;;23.66;44.41
58471;BME280;44258;51.288;12.068;2023-05-22T08:56:30;100319.97;;;23.76;45.01
58471;BME280;44258;51.288;12.068;2023-05-22T08:59:18;100317.84;;;24.75;41.83
58471;BME280;44258;51.288;12.068;2023-05-22T09:02:06;100316.84;;;25.30;41.34
58471;BME280;44258;51.288;12.068;2023-05-22T09:04:54;100306.75;;;26.22;40.15
58471;BME280;44258;51.288;12.068;2023-05-22T09:07:42;100304.97;;;26.44;38.62
58471;BME280;44258;51.288;12.068;2023-05-22T09:10:29;100302.56;;;26.11;38.29
58471;BME280;44258;51.288;12.068;2023-05-22T09:13:24;100302.22;;;25.76;40.03
58471;BME280;44258;51.288;12.068;2023-05-22T09:16:14;100300.78;;;25.42;39.21
58471;BME280;44258;51.288;12.068;2023-05-22T09:19:01;100296.16;;;25.43;38.83
58471;BME280;44258;51.288;12.068;2023-05-22T09:21:49;100301.44;;;25.44;38.93
58471;BME280;44258;51.288;12.068;2023-05-22T09:24:40;100295.09;;;24.89;40.53
58471;BME280;44258;51.288;12.068;2023-05-22T09:27:27;100290.69;;;24.72;40.58
58471;BME280;44258;51.288;12.068;2023-05-22T09:30:15;100285.03;;;25.05;40.42
58471;BME280;44258;51.288;12.068;2023-05-22T09:33:03;100290.25;;;25.23;40.43
58471;BME280;44258;51.288;12.068;2023-05-22T09:35:54;100284.94;;;25.44;39.67
58471;BME280;44258;51.288;12.068;2023-05-22T09:38:45;100289.19;;;25.24;39.85
58471;BME280;44258;51.288;12.068;2023-05-22T09:41:40;100290.75;;;24.95;40.47
58471;BME280;44258;51.288;12.068;2023-05-22T09:44:31;100289.13;;;24.30;42.02
58471;BME280;44258;51.288;12.068;2023-05-22T09:47:18;100284.22;;;24.57;41.05
58471;BME280;44258;51.288;12.068;2023-05-22T09:50:06;100293.69;;;24.54;41.30
58471;BME280;44258;51.288;12.068;2023-05-22T09:52:55;100285.16;;;25.35;39.75
58471;BME280;44258;51.288;12.068;2023-05-22T09:55:45;100288.59;;;25.60;38.70
58471;BME280;44258;51.288;12.068;2023-05-22T09:58:37;100285.31;;;25.41;38.29
58471;BME280;44258;51.288;12.068;2023-05-22T10:01:27;100279.50;;;25.74;35.90
58471;BME280;44258;51.288;12.068;2023-05-22T10:04:18;100281.78;;;25.70;35.17
58471;BME280;44258;51.288;12.068;2023-05-22T10:07:08;100281.09;;;25.68;34.58
58471;BME280;44258;51.288;12.068;2023-05-22T10:10:11;100275.00;;;25.58;35.42
58471;BME280;44258;51.288;12.068;2023-05-22T10:13:02;100276.00;;;25.80;32.62
58471;BME280;44258;51.288;12.068;2023-05-22T10:15:50;100265.72;;;25.59;33.19
58471;BME280;44258;51.288;12.068;2023-05-22T10:18:37;100264.06;;;25.50;33.35
58471;BME280;44258;51.288;12.068;2023-05-22T10:21:25;100267.91;;;25.79;33.09
58471;BME280;44258;51.288;12.068;2023-05-22T10:24:13;100267.75;;;25.80;32.47
58471;BME280;44258;51.288;12.068;2023-05-22T10:27:00;100265.66;;;25.82;33.51
58471;BME280;44258;51.288;12.068;2023-05-22T10:29:53;100257.22;;;25.84;32.50
58471;BME280;44258;51.288;12.068;2023-05-22T10:32:45;100257.47;;;25.89;32.84
58471;BME280;44258;51.288;12.068;2023-05-22T10:35:40;100259.03;;;25.91;32.83
58471;BME280;44258;51.288;12.068;2023-05-22T10:38:50;100260.72;;;25.92;33.37
58471;BME280;44258;51.288;12.068;2023-05-22T10:41:40;100254.81;;;25.81;32.42
58471;BME280;44258;51.288;12.068;2023-05-22T10:44:27;100249.56;;;25.71;32.84
58471;BME280;44258;51.288;12.068;2023-05-22T10:47:19;100252.41;;;25.63;33.73
58471;BME280;44258;51.288;12.068;2023-05-22T10:50:10;100251.28;;;25.72;32.52
58471;BME280;44258;51.288;12.068;2023-05-22T10:53:18;100247.28;;;25.60;32.95
58471;BME280;44258;51.288;12.068;2023-05-22T10:56:19;100246.22;;;25.61;33.53
58471;BME280;44258;51.288;12.068;2023-05-22T10:59:06;100254.91;;;25.73;32.27
58471;BME280;44258;51.288;12.068;2023-05-22T11:01:59;100244.56;;;25.75;32.46
58471;BME280;44258;51.288;12.068;2023-05-22T11:04:50;100239.28;;;26.18;33.70
58471;BME280;44258;51.288;12.068;2023-05-22T11:07:39;100236.91;;;26.29;33.67
58471;BME280;44258;51.288;12.068;2023-05-22T11:10:26;100236.78;;;26.67;31.88
58471;BME280;44258;51.288;12.068;2023-05-22T11:13:37;100237.91;;;26.73;32.42
58471;BME280;44258;51.288;12.068;2023-05-22T11:16:30;100235.47;;;26.85;32.51
58471;BME280;44258;51.288;12.068;2023-05-22T11:19:20;100235.56;;;26.92;32.67
58471;BME280;44258;51.288;12.068;2023-05-22T11:22:09;100237.47;;;27.13;32.51
58471;BME280;44258;51.288;12.068;2023-05-22T11:24:56;100227.25;;;26.70;31.57
58471;BME280;44258;51.288;12.068;2023-05-22T11:27:43;100228.13;;;26.92;31.11
58471;BME280;44258;51.288;12.068;2023-05-22T11:30:30;100218.16;;;27.13;30.83
58471;BME280;44258;51.288;12.068;2023-05-22T11:33:17;100227.38;;;27.20;30.89
58471;BME280;44258;51.288;12.068;2023-05-22T11:36:05;100216.34;;;27.48;31.28
58471;BME280;44258;51.288;12.068;2023-05-22T11:38:57;100222.91;;;27.40;30.46
58471;BME280;44258;51.288;12.068;2023-05-22T11:41:45;100213.84;;;27.25;29.57
58471;BME280;44258;51.288;12.068;2023-05-22T11:44:32;100217.31;;;27.12;30.22
58471;BME280;44258;51.288;12.068;2023-05-22T11:47:19;100203.22;;;27.07;30.00
58471;BME280;44258;51.288;12.068;2023-05-22T11:50:08;100202.78;;;27.25;30.28
58471;BME280;44258;51.288;12.068;2023-05-22T11:52:56;100202.91;;;27.17;31.15
58471;BME280;44258;51.288;12.068;2023-05-22T11:55:47;100201.63;;;27.19;31.13
58471;BME280;44258;51.288;12.068;2023-05-22T11:58:33;100208.50;;;27.23;30.21
58471;BME280;44258;51.288;12.068;2023-05-22T12:01:20;100194.41;;;27.40;30.25
58471;BME280;44258;51.288;12.068;2023-05-22T12:04:07;100187.16;;;27.32;30.34
58471;BME280;44258;51.288;12.068;2023-05-22T12:06:54;100199.25;;;27.59;30.95
58471;BME280;44258;51.288;12.068;2023-05-22T12:09:41;100192.16;;;27.50;30.55
58471;BME280;44258;51.288;12.068;2023-05-22T12:12:30;100191.66;;;27.40;29.64
58471;BME280;44258;51.288;12.068;2023-05-22T12:15:17;100197.47;;;27.52;29.76
58471;BME280;44258;51.288;12.068;2023-05-22T12:18:07;100187.50;;;27.22;29.10
58471;BME280;44258;51.288;12.068;2023-05-22T12:20:54;100197.13;;;26.90;29.44
58471;BME280;44258;51.288;12.068;2023-05-22T12:23:47;100188.19;;;27.09;29.81
58471;BME280;44258;51.288;12.068;2023-05-22T12:26:36;100188.84;;;27.33;29.58
58471;BME280;44258;51.288;12.068;2023-05-22T12:29:25;100179.44;;;27.27;30.15
58471;BME280;44258;51.288;12.068;2023-05-22T12:32:12;100185.69;;;27.15;30.09
58471;BME280;44258;51.288;12.068;2023-05-22T12:34:58;100180.31;;;27.06;29.41
58471;BME280;44258;51.288;12.068;2023-05-22T12:37:49;100179.91;;;27.09;30.01
58471;BME280;44258;51.288;12.068;2023-05-22T12:40:36;100176.38;;;27.16;29.05
58471;BME280;44258;51.288;12.068;2023-05-22T12:43:23;100178.00;;;27.32;29.24
58471;BME280;44258;51.288;12.068;2023-05-22T12:46:13;100168.50;;;27.19;29.60
58471;BME280;44258;51.288;12.068;2023-05-22T12:49:00;100163.88;;;27.20;28.74
58471;BME280;44258;51.288;12.068;2023-05-22T12:51:49;100183.56;;;27.17;28.99
58471;BME280;44258;51.288;12.068;2023-05-22T12:54:36;100171.22;;;27.13;28.46
58471;BME280;44258;51.288;12.068;2023-05-22T12:57:23;100174.25;;;27.18;29.15
58471;BME280;44258;51.288;12.068;2023-05-22T13:00:11;100173.34;;;27.10;28.62
58471;BME280;44258;51.288;12.068;2023-05-22T13:03:00;100164.06;;;27.18;28.59
58471;BME280;44258;51.288;12.068;2023-05-22T13:05:47;100163.75;;;27.28;27.81
58471;BME280;44258;51.288;12.068;2023-05-22T13:08:34;100164.03;;;27.40;27.96
58471;BME280;44258;51.288;12.068;2023-05-22T13:11:21;100159.25;;;27.48;28.74
58471;BME280;44258;51.288;12.068;2023-05-22T13:14:11;100150.38;;;27.60;28.07
58471;BME280;44258;51.288;12.068;2023-05-22T13:16:58;100154.63;;;27.62;27.92
58471;BME280;44258;51.288;12.068;2023-05-22T13:19:46;100146.50;;;27.54;28.29
58471;BME280;44258;51.288;12.068;2023-05-22T13:22:33;100149.41;;;27.74;27.46
58471;BME280;44258;51.288;12.068;2023-05-22T13:25:22;100138.94;;;27.63;27.15
58471;BME280;44258;51.288;12.068;2023-05-22T13:28:11;100145.03;;;27.58;27.75
58471;BME280;44258;51.288;12.068;2023-05-22T13:30:59;100141.94;;;27.68;27.92
58471;BME280;44258;51.288;12.068;2023-05-22T13:33:50;100148.09;;;27.70;28.37
58471;BME280;44258;51.288;12.068;2023-05-22T13:36:39;100141.94;;;27.68;28.16
58471;BME280;44258;51.288;12.068;2023-05-22T13:39:26;100136.75;;;27.58;27.56
58471;BME280;44258;51.288;12.068;2023-05-22T13:42:14;100139.19;;;27.40;27.82
58471;BME280;44258;51.288;12.068;2023-05-22T13:45:00;100133.28;;;27.43;28.10
58471;BME280;44258;51.288;12.068;2023-05-22T13:47:55;100133.81;;;27.32;28.15
58471;BME280;44258;51.288;12.068;2023-05-22T13:50:45;100139.81;;;27.14;28.76
58471;BME280;44258;51.288;12.068;2023-05-22T13:53:33;100139.19;;;26.90;29.08
58471;BME280;44258;51.288;12.068;2023-05-22T13:56:21;100124.28;;;26.84;29.22
58471;BME280;44258;51.288;12.068;2023-05-22T13:59:14;100129.25;;;26.74;29.22
58471;BME280;44258;51.288;12.068;2023-05-22T14:02:03;100126.22;;;26.90;29.67
58471;BME280;44258;51.288;12.068;2023-05-22T14:04:55;100125.47;;;27.03;29.13
58471;BME280;44258;51.288;12.068;2023-05-22T14:07:46;100126.03;;;27.14;29.35
58471;BME280;44258;51.288;12.068;2023-05-22T14:10:35;100124.44;;;27.04;29.07
58471;BME280;44258;51.288;12.068;2023-05-22T14:13:25;100116.47;;;27.16;29.36
58471;BME280;44258;51.288;12.068;2023-05-22T14:16:12;100109.25;;;27.15;29.65
58471;BME280;44258;51.288;12.068;2023-05-22T14:18:59;100117.47;;;27.30;29.28
58471;BME280;44258;51.288;12.068;2023-05-22T14:21:51;100102.47;;;27.46;29.57
58471;BME280;44258;51.288;12.068;2023-05-22T14:24:43;100109.88;;;27.39;29.71
58471;BME280;44258;51.288;12.068;2023-05-22T14:27:37;100096.47;;;27.36;28.90
58471;BME280;44258;51.288;12.068;2023-05-22T14:30:24;100088.63;;;27.39;29.33
58471;BME280;44258;51.288;12.068;2023-05-22T14:33:11;100081.31;;;27.60;29.97
58471;BME280;44258;51.288;12.068;2023-05-22T14:35:58;100088.78;;;27.66;29.43